Time;durP1;ratioP1;P1;durP2;ratioP2;P2;SDS_P1;SDS_P2;PMS_P1;PMS_P2;Temp;Humidity;BMP_temperature;BMP_pressure;BME280_temperature;BME280_humidity;BME280_pressure;Samples;Min_cycle;Max_cycle;Signal;HPM_P1;HPM_P2
2022/04/18 00:01:44;;;;;;;;;;;6.60;95.50;;;;;;5021568;28;20146;-77
2022/04/18 00:04:09;;;;;;;;;;;6.60;95.50;;;;;;5021761;28;20362;-77
2022/04/18 00:06:35;;;;;;;;;;;6.50;95.40;;;;;;5021528;28;19924;-77
2022/04/18 00:09:01;;;;;;;;;;;6.50;95.60;;;;;;5020497;28;19913;-77
2022/04/18 00:11:26;;;;;;;;;;;6.50;95.60;;;;;;5021084;28;19921;-77
2022/04/18 00:13:52;;;;;;;;;;;6.40;95.50;;;;;;5021423;28;19914;-77
2022/04/18 00:16:17;;;;;;;;;;;6.40;95.70;;;;;;5020983;28;19913;-77
2022/04/18 00:18:43;;;;;;;;;;;6.30;95.70;;;;;;5021532;28;20294;-77
2022/04/18 00:21:08;;;;;;;;;;;6.30;95.90;;;;;;5020767;28;20715;-77
2022/04/18 00:23:34;;;;;;;;;;;6.30;96.00;;;;;;5021104;28;19920;-77
2022/04/18 00:25:59;;;;;;;;;;;6.30;96.10;;;;;;5021128;28;20289;-77
2022/04/18 00:28:24;;;;;;;;;;;6.20;96.10;;;;;;5020910;28;20344;-77
2022/04/18 00:30:50;;;;;;;;;;;6.20;96.10;;;;;;5021023;28;20341;-77
2022/04/18 00:33:15;;;;;;;;;;;6.20;96.30;;;;;;5021122;28;20433;-77
2022/04/18 00:35:41;;;;;;;;;;;6.10;96.50;;;;;;5021294;28;19997;-77
2022/04/18 00:38:06;;;;;;;;;;;6.10;96.80;;;;;;5020869;28;19968;-77
2022/04/18 00:40:32;;;;;;;;;;;6.10;96.90;;;;;;5020942;28;19920;-77
2022/04/18 00:43:01;;;;;;;;;;;6.00;97.20;;;;;;5020851;28;19910;-77
2022/04/18 00:45:26;;;;;;;;;;;6.00;97.10;;;;;;5020444;28;19913;-77
2022/04/18 00:47:51;;;;;;;;;;;5.90;97.30;;;;;;5020864;28;19916;-77
2022/04/18 00:50:17;;;;;;;;;;;5.90;97.30;;;;;;5020478;28;20354;-77
2022/04/18 00:52:43;;;;;;;;;;;5.90;97.40;;;;;;5020557;28;19909;-77
2022/04/18 00:55:08;;;;;;;;;;;5.90;97.50;;;;;;5020521;28;19920;-77
2022/04/18 00:57:35;;;;;;;;;;;5.90;97.60;;;;;;5020437;28;19910;-77
2022/04/18 01:00:01;;;;;;;;;;;5.80;97.70;;;;;;5020052;28;19913;-77
2022/04/18 01:02:26;;;;;;;;;;;5.80;97.70;;;;;;5020329;28;19914;-77
2022/04/18 01:04:52;;;;;;;;;;;5.80;97.70;;;;;;5020494;28;19992;-77
2022/04/18 01:07:17;;;;;;;;;;;5.70;97.50;;;;;;5019939;28;20042;-77
2022/04/18 01:09:43;;;;;;;;;;;5.70;97.60;;;;;;5020474;28;19913;-77
2022/04/18 01:12:08;;;;;;;;;;;5.70;97.60;;;;;;5019874;28;20382;-77
2022/04/18 01:14:33;;;;;;;;;;;5.60;97.70;;;;;;5020073;28;19914;-77
2022/04/18 01:16:59;;;;;;;;;;;5.60;97.70;;;;;;5020242;28;20401;-77
2022/04/18 01:19:24;;;;;;;;;;;5.60;97.90;;;;;;5020255;28;19914;-77
2022/04/18 01:21:50;;;;;;;;;;;5.50;97.80;;;;;;5020164;28;19913;-77
2022/04/18 01:29:44;;;;;;;;;;;5.50;98.00;;;;;;5020194;28;19956;-77
2022/04/18 01:32:09;;;;;;;;;;;5.40;97.90;;;;;;5019810;28;19913;-77
2022/04/18 01:34:35;;;;;;;;;;;5.30;98.10;;;;;;5019982;28;20282;-77
2022/04/18 01:37:00;;;;;;;;;;;5.30;98.10;;;;;;5019760;28;20366;-77
2022/04/18 01:39:25;;;;;;;;;;;5.20;98.20;;;;;;5019819;28;20282;-77
2022/04/18 01:41:51;;;;;;;;;;;5.20;98.30;;;;;;5020132;28;19910;-77
2022/04/18 01:44:16;;;;;;;;;;;5.20;98.30;;;;;;5019593;28;19913;-77
2022/04/18 01:46:42;;;;;;;;;;;5.20;98.60;;;;;;5019882;28;20389;-77
2022/04/18 01:49:07;;;;;;;;;;;5.20;98.50;;;;;;5019844;28;19944;-77
2022/04/18 01:51:33;;;;;;;;;;;5.30;98.50;;;;;;5019410;28;20313;-77
2022/04/18 01:53:58;;;;;;;;;;;5.30;98.40;;;;;;5019731;28;19917;-77
2022/04/18 01:56:24;;;;;;;;;;;5.30;98.20;;;;;;5019183;28;19910;-77
2022/04/18 01:58:49;;;;;;;;;;;5.30;98.50;;;;;;5019624;28;20412;-77
2022/04/18 02:01:15;;;;;;;;;;;5.20;98.30;;;;;;5019230;28;20398;-77
2022/04/18 02:03:41;;;;;;;;;;;5.20;98.30;;;;;;5018918;28;19913;-77
2022/04/18 02:06:07;;;;;;;;;;;5.20;98.40;;;;;;5019172;28;20427;-77
2022/04/18 02:08:33;;;;;;;;;;;5.20;98.40;;;;;;5019255;28;19957;-76
2022/04/18 02:10:58;;;;;;;;;;;5.20;98.50;;;;;;5019473;28;19933;-77
2022/04/18 02:13:24;;;;;;;;;;;5.20;98.50;;;;;;5019050;28;20010;-77
2022/04/18 02:15:50;;;;;;;;;;;5.20;98.40;;;;;;5019216;28;19909;-77
2022/04/18 02:18:15;;;;;;;;;;;5.10;98.50;;;;;;5019040;28;19913;-77
2022/04/18 02:20:41;;;;;;;;;;;5.10;98.50;;;;;;5019668;28;19910;-77
2022/04/18 02:23:06;;;;;;;;;;;5.10;98.40;;;;;;5019195;28;20282;-77
2022/04/18 02:25:32;;;;;;;;;;;5.10;98.70;;;;;;5019406;28;20332;-77
2022/04/18 02:27:57;;;;;;;;;;;5.10;98.70;;;;;;5019076;28;19953;-77
2022/04/18 02:30:23;;;;;;;;;;;5.10;98.70;;;;;;5019335;28;19913;-77
2022/04/18 02:32:49;;;;;;;;;;;5.10;98.70;;;;;;5022977;28;19971;-77
2022/04/18 02:35:15;;;;;;;;;;;5.10;98.80;;;;;;5022934;28;19913;-77
2022/04/18 02:37:40;;;;;;;;;;;5.00;98.70;;;;;;5023428;28;19913;-77
2022/04/18 02:40:06;;;;;;;;;;;5.00;98.60;;;;;;5023010;28;20000;-77
2022/04/18 02:42:32;;;;;;;;;;;4.90;98.60;;;;;;5022857;28;19952;-77
2022/04/18 02:44:57;;;;;;;;;;;4.90;98.80;;;;;;5023109;28;19992;-77
2022/04/18 02:47:23;;;;;;;;;;;5.00;98.90;;;;;;5022636;28;19913;-77
2022/04/18 02:49:50;;;;;;;;;;;5.00;98.70;;;;;;5022997;28;19937;-76
2022/04/18 02:52:16;;;;;;;;;;;4.90;98.60;;;;;;5022612;28;20000;-77
2022/04/18 02:54:41;;;;;;;;;;;4.90;98.70;;;;;;5022980;28;20020;-77
2022/04/18 02:57:06;;;;;;;;;;;4.80;98.90;;;;;;5022605;28;19916;-77
2022/04/18 02:59:32;;;;;;;;;;;4.80;98.80;;;;;;5022942;28;19920;-76
2022/04/18 03:01:57;;;;;;;;;;;4.80;98.90;;;;;;5022651;28;19916;-77
2022/04/18 03:04:23;;;;;;;;;;;4.80;98.90;;;;;;5022562;28;19914;-76
2022/04/18 03:06:48;;;;;;;;;;;4.70;99.00;;;;;;5022592;28;20389;-76
2022/04/18 03:09:15;;;;;;;;;;;4.70;98.80;;;;;;5022526;28;20031;-76
2022/04/18 03:11:40;;;;;;;;;;;4.70;99.00;;;;;;5022767;28;19910;-76
2022/04/18 03:14:06;;;;;;;;;;;4.70;99.00;;;;;;5022479;28;19924;-76
2022/04/18 03:16:31;;;;;;;;;;;4.60;99.00;;;;;;5022584;28;19917;-77
2022/04/18 03:18:56;;;;;;;;;;;4.60;99.10;;;;;;5022617;28;19920;-76
2022/04/18 03:21:22;;;;;;;;;;;4.60;99.70;;;;;;5022056;28;19913;-76
2022/04/18 03:23:47;;;;;;;;;;;4.60;99.70;;;;;;5022525;28;19910;-77
2022/04/18 03:26:13;;;;;;;;;;;4.50;99.60;;;;;;5022043;28;20269;-76
2022/04/18 03:28:38;;;;;;;;;;;4.50;99.60;;;;;;5021964;28;19911;-76
2022/04/18 03:31:04;;;;;;;;;;;4.50;99.30;;;;;;5022270;28;19916;-76
2022/04/18 03:33:29;;;;;;;;;;;4.40;99.60;;;;;;5022135;28;20200;-76
2022/04/18 03:41:23;;;;;;;;;;;4.20;99.90;;;;;;5021819;28;19920;-76
2022/04/18 03:43:51;;;;;;;;;;;4.20;99.90;;;;;;5021900;28;19913;-76
2022/04/18 03:46:17;;;;;;;;;;;4.20;99.90;;;;;;5021814;28;19913;-76
2022/04/18 03:48:43;;;;;;;;;;;4.10;99.90;;;;;;5021909;28;20362;-76
2022/04/18 03:51:08;;;;;;;;;;;4.10;99.90;;;;;;5021569;28;19909;-76
2022/04/18 03:53:33;;;;;;;;;;;4.10;99.90;;;;;;5021744;28;20016;-76
2022/04/18 03:55:59;;;;;;;;;;;4.10;99.90;;;;;;5021708;28;19995;-76
2022/04/18 03:58:25;;;;;;;;;;;4.10;99.90;;;;;;5021490;28;19941;-76
2022/04/18 04:00:50;;;;;;;;;;;4.10;99.90;;;;;;5021694;28;20424;-76
2022/04/18 04:03:16;;;;;;;;;;;4.10;99.90;;;;;;5021628;28;19910;-76
2022/04/18 04:05:41;;;;;;;;;;;4.10;99.90;;;;;;5021682;28;19968;-76
2022/04/18 04:08:07;;;;;;;;;;;4.10;99.90;;;;;;5021421;28;20412;-76
2022/04/18 04:10:33;;;;;;;;;;;4.10;99.90;;;;;;5021354;28;19913;-76
2022/04/18 04:12:59;;;;;;;;;;;4.10;99.90;;;;;;5020697;28;19985;-76
2022/04/18 04:15:24;;;;;;;;;;;4.10;99.90;;;;;;5021224;28;19913;-76
2022/04/18 04:17:50;;;;;;;;;;;4.10;99.90;;;;;;5021132;28;20000;-76
2022/04/18 04:20:15;;;;;;;;;;;4.10;99.90;;;;;;5021108;28;20279;-76
2022/04/18 04:22:44;;;;;;;;;;;4.10;99.90;;;;;;5021442;28;19914;-76
2022/04/18 04:25:10;;;;;;;;;;;4.10;99.90;;;;;;5020612;28;19913;-76
2022/04/18 04:27:35;;;;;;;;;;;4.30;99.90;;;;;;5021073;28;19910;-76
2022/04/18 04:30:00;;;;;;;;;;;4.50;99.90;;;;;;5021161;28;19917;-76
2022/04/18 04:32:26;;;;;;;;;;;4.80;99.90;;;;;;5020436;28;20377;-76
2022/04/18 04:34:51;;;;;;;;;;;5.10;99.90;;;;;;5021160;28;20317;-76
2022/04/18 04:37:17;;;;;;;;;;;5.40;99.90;;;;;;5020803;28;20376;-76
2022/04/18 04:39:42;;;;;;;;;;;5.70;99.90;;;;;;5020992;28;20559;-76
2022/04/18 04:42:08;;;;;;;;;;;5.90;99.80;;;;;;5020677;28;19910;-76
2022/04/18 04:44:33;;;;;;;;;;;6.20;99.60;;;;;;5020838;28;19909;-76
2022/04/18 04:46:59;;;;;;;;;;;6.50;99.30;;;;;;5020734;28;19916;-76
2022/04/18 04:49:24;;;;;;;;;;;6.70;98.80;;;;;;5020197;28;19910;-76
2022/04/18 04:51:50;;;;;;;;;;;7.00;98.70;;;;;;5020773;28;19913;-76
2022/04/18 04:54:15;;;;;;;;;;;7.20;98.10;;;;;;5019758;28;20359;-76
2022/04/18 04:56:40;;;;;;;;;;;7.50;97.90;;;;;;5020812;28;19917;-76
2022/04/18 04:59:07;;;;;;;;;;;7.80;97.60;;;;;;5020849;28;19910;-76
2022/04/18 05:01:33;;;;;;;;;;;7.90;97.00;;;;;;5020597;28;19996;-76
2022/04/18 05:03:58;;;;;;;;;;;8.10;96.90;;;;;;5019992;28;20347;-76
2022/04/18 05:06:24;;;;;;;;;;;8.30;96.70;;;;;;5020350;28;19909;-76
2022/04/18 05:08:49;;;;;;;;;;;8.30;96.60;;;;;;5020038;28;19968;-77
2022/04/18 05:11:15;;;;;;;;;;;8.50;96.00;;;;;;5019882;28;19913;-77
2022/04/18 05:13:40;;;;;;;;;;;8.40;96.10;;;;;;5020395;28;19913;-76
2022/04/18 05:16:05;;;;;;;;;;;8.30;96.20;;;;;;5020088;28;19913;-77
2022/04/18 05:18:31;;;;;;;;;;;8.10;95.90;;;;;;5020387;28;19913;-76
2022/04/18 05:20:57;;;;;;;;;;;8.30;95.90;;;;;;5020203;28;19913;-77
2022/04/18 05:23:22;;;;;;;;;;;8.70;95.40;;;;;;5019765;28;19910;-77
2022/04/18 05:25:48;;;;;;;;;;;9.10;95.30;;;;;;5020169;28;19913;-77
2022/04/18 05:28:13;;;;;;;;;;;9.30;94.80;;;;;;5019712;28;19920;-77
2022/04/18 05:30:40;;;;;;;;;;;9.30;94.70;;;;;;5020087;28;19914;-77
2022/04/18 05:33:06;;;;;;;;;;;9.00;94.70;;;;;;5020104;28;20432;-77
2022/04/18 05:35:31;;;;;;;;;;;8.70;94.70;;;;;;5020179;28;19957;-77
2022/04/18 05:37:56;;;;;;;;;;;8.40;95.30;;;;;;5019826;28;19972;-77
2022/04/18 05:40:22;;;;;;;;;;;8.20;95.80;;;;;;5019902;28;19913;-77
2022/04/18 05:42:47;;;;;;;;;;;8.20;96.00;;;;;;5019829;28;19917;-77
2022/04/18 05:45:13;;;;;;;;;;;8.00;96.10;;;;;;5019500;28;19959;-77
2022/04/18 05:47:38;;;;;;;;;;;8.00;96.10;;;;;;5019768;28;20012;-77
2022/04/18 05:50:04;;;;;;;;;;;8.00;96.30;;;;;;5019885;28;19909;-77
2022/04/18 05:52:30;;;;;;;;;;;8.00;96.20;;;;;;5019354;28;19963;-76
2022/04/18 05:54:55;;;;;;;;;;;8.00;96.20;;;;;;5019505;28;19921;-77
2022/04/18 05:57:21;;;;;;;;;;;7.90;96.30;;;;;;5019321;28;19972;-77
2022/04/18 05:59:47;;;;;;;;;;;7.80;96.50;;;;;;5019685;28;19917;-77
2022/04/18 06:02:12;;;;;;;;;;;7.90;96.60;;;;;;5019681;28;19909;-77
2022/04/18 06:04:39;;;;;;;;;;;8.00;96.60;;;;;;5019550;28;19937;-77
2022/04/18 06:07:04;;;;;;;;;;;8.10;96.60;;;;;;5017970;28;19917;-77
2022/04/18 06:09:30;;;;;;;;;;;8.20;96.30;;;;;;5019407;28;19962;-77
2022/04/18 06:11:55;;;;;;;;;;;8.20;96.40;;;;;;5018747;28;19988;-77
2022/04/18 06:14:21;;;;;;;;;;;8.30;96.20;;;;;;5018872;28;19928;-77
2022/04/18 06:16:46;;;;;;;;;;;8.40;96.20;;;;;;5019295;28;19917;-77
2022/04/18 06:19:12;;;;;;;;;;;8.50;96.10;;;;;;5019378;28;19920;-77
2022/04/18 06:21:37;;;;;;;;;;;8.50;96.00;;;;;;5019291;28;19909;-77
2022/04/18 06:24:03;;;;;;;;;;;8.60;95.80;;;;;;5019289;28;19913;-77
2022/04/18 06:26:28;;;;;;;;;;;8.70;95.80;;;;;;5018931;28;20433;-77
2022/04/18 06:28:54;;;;;;;;;;;8.70;95.00;;;;;;5019303;28;20025;-76
2022/04/18 06:31:19;;;;;;;;;;;8.70;95.10;;;;;;5019049;28;19963;-76
2022/04/18 06:33:45;;;;;;;;;;;8.80;94.90;;;;;;5019372;28;19917;-76
2022/04/18 06:36:10;;;;;;;;;;;8.90;94.70;;;;;;5019231;28;20539;-76
2022/04/18 06:38:35;;;;;;;;;;;9.10;94.20;;;;;;5019721;28;19916;-77
2022/04/18 06:41:02;;;;;;;;;;;9.20;94.00;;;;;;5019128;28;19917;-77
2022/04/18 06:43:27;;;;;;;;;;;9.30;93.60;;;;;;5018480;28;20286;-77
2022/04/18 06:45:53;;;;;;;;;;;9.30;93.80;;;;;;5019315;28;20016;-77
2022/04/18 06:48:19;;;;;;;;;;;9.40;93.20;;;;;;5018454;28;20362;-77
2022/04/18 06:50:45;;;;;;;;;;;9.50;93.60;;;;;;5018990;28;19932;-77
2022/04/18 06:53:11;;;;;;;;;;;9.60;92.80;;;;;;5018417;28;19913;-77
2022/04/18 06:58:21;;;;;;;;;;;9.70;92.40;;;;;;5019083;28;20309;-77
2022/04/18 07:00:46;;;;;;;;;;;9.90;92.40;;;;;;5019288;28;19913;-77
2022/04/18 07:03:12;;;;;;;;;;;9.90;91.90;;;;;;5018719;28;19916;-77
2022/04/18 07:05:39;;;;;;;;;;;9.90;91.00;;;;;;5018819;28;20278;-77
2022/04/18 07:08:04;;;;;;;;;;;9.80;91.20;;;;;;5018683;28;19925;-77
2022/04/18 07:10:30;;;;;;;;;;;9.80;91.40;;;;;;5018875;28;19914;-77
2022/04/18 07:12:55;;;;;;;;;;;9.90;91.30;;;;;;5018761;28;19965;-77
2022/04/18 07:15:21;;;;;;;;;;;10.00;91.80;;;;;;5018516;28;20051;-77
2022/04/18 07:17:46;;;;;;;;;;;10.20;91.70;;;;;;5020469;28;19909;-77
2022/04/18 07:20:11;;;;;;;;;;;10.30;90.90;;;;;;5022344;28;19956;-77
2022/04/18 07:22:38;;;;;;;;;;;10.30;90.40;;;;;;5022414;28;19940;-77
2022/04/18 07:25:04;;;;;;;;;;;10.40;90.50;;;;;;5022402;28;19913;-77
2022/04/18 07:27:29;;;;;;;;;;;10.50;90.10;;;;;;5021902;28;19910;-77
2022/04/18 07:29:55;;;;;;;;;;;10.60;90.30;;;;;;5022364;28;20012;-77
2022/04/18 07:32:20;;;;;;;;;;;10.70;90.80;;;;;;5021910;28;20374;-77
2022/04/18 07:34:47;;;;;;;;;;;10.90;90.80;;;;;;5022062;28;19917;-77
2022/04/18 07:37:12;;;;;;;;;;;11.20;85.90;;;;;;5021672;28;19917;-78
2022/04/18 07:39:38;;;;;;;;;;;11.10;83.80;;;;;;5021950;28;19909;-77
2022/04/18 07:42:03;;;;;;;;;;;11.00;83.40;;;;;;5022224;28;20302;-77
2022/04/18 07:44:29;;;;;;;;;;;11.20;83.40;;;;;;5021791;28;20008;-77
2022/04/18 07:46:55;;;;;;;;;;;11.10;82.50;;;;;;5021390;28;19909;-77
2022/04/18 07:49:20;;;;;;;;;;;11.30;83.70;;;;;;5021735;28;19949;-77
2022/04/18 07:51:46;;;;;;;;;;;11.40;81.70;;;;;;5021627;28;19980;-77
2022/04/18 07:54:14;;;;;;;;;;;11.30;81.70;;;;;;5021837;28;20431;-77
2022/04/18 07:56:40;;;;;;;;;;;11.40;82.70;;;;;;5021359;28;19916;-77
2022/04/18 07:59:05;;;;;;;;;;;11.50;82.20;;;;;;5022005;28;19913;-77
2022/04/18 08:01:31;;;;;;;;;;;11.70;78.80;;;;;;5021375;28;19914;-77
2022/04/18 08:04:00;;;;;;;;;;;11.60;77.00;;;;;;5021649;28;19914;-77
2022/04/18 08:06:25;;;;;;;;;;;11.60;80.00;;;;;;5021193;28;20043;-77
2022/04/18 08:08:51;;;;;;;;;;;11.80;80.70;;;;;;5021382;28;20037;-77
2022/04/18 08:11:16;;;;;;;;;;;11.80;80.40;;;;;;5021332;28;19915;-78
2022/04/18 08:13:42;;;;;;;;;;;12.00;79.90;;;;;;5021228;28;19980;-77
2022/04/18 08:16:08;;;;;;;;;;;12.20;79.10;;;;;;5021224;28;19917;-77
2022/04/18 08:18:36;;;;;;;;;;;12.20;77.30;;;;;;5003527;28;20230;-77
2022/04/18 08:21:02;;;;;;;;;;;12.30;78.40;;;;;;5021273;28;20409;-77
2022/04/18 08:23:28;;;;;;;;;;;12.40;77.70;;;;;;5021123;28;20297;-77
2022/04/18 08:25:53;;;;;;;;;;;12.50;76.60;;;;;;5021360;28;19909;-78
2022/04/18 08:28:19;;;;;;;;;;;12.50;74.70;;;;;;5020506;28;20251;-78
2022/04/18 08:30:44;;;;;;;;;;;12.60;77.00;;;;;;5020439;28;20337;-77
2022/04/18 08:33:09;;;;;;;;;;;12.80;77.90;;;;;;5021000;28;20556;-78
2022/04/18 08:35:35;;;;;;;;;;;13.00;77.60;;;;;;5020858;28;19909;-77
2022/04/18 08:38:00;;;;;;;;;;;13.20;76.60;;;;;;5020448;28;20145;-78
2022/04/18 08:40:26;;;;;;;;;;;13.20;75.90;;;;;;5020864;28;20374;-77
2022/04/18 08:42:54;;;;;;;;;;;13.30;76.50;;;;;;5020761;28;19923;-78
2022/04/18 08:45:22;;;;;;;;;;;13.40;77.70;;;;;;5020374;28;19909;-77
2022/04/18 08:53:19;;;;;;;;;;;13.60;77.50;;;;;;5020053;28;20401;-77
2022/04/18 08:55:45;;;;;;;;;;;13.60;74.00;;;;;;5020279;28;19942;-77
2022/04/18 08:58:12;;;;;;;;;;;13.60;72.30;;;;;;5019822;28;20000;-77
2022/04/18 09:00:38;;;;;;;;;;;13.50;75.40;;;;;;5020353;28;20262;-78
2022/04/18 09:03:03;;;;;;;;;;;13.60;75.90;;;;;;5020430;28;19947;-78
2022/04/18 09:05:34;;;;;;;;;;;13.80;75.70;;;;;;5020260;28;20318;-78
2022/04/18 09:08:00;;;;;;;;;;;13.90;76.60;;;;;;5020362;28;19917;-78
2022/04/18 09:10:26;;;;;;;;;;;14.10;76.70;;;;;;5020090;28;19916;-78
2022/04/18 09:12:52;;;;;;;;;;;14.20;75.00;;;;;;5020060;28;19914;-78
2022/04/18 09:15:37;;;;;;;;;;;14.10;73.30;;;;;;5019863;28;19919;-78
2022/04/18 09:18:06;;;;;;;;;;;14.10;73.50;;;;;;5020086;28;19909;-78
2022/04/18 09:20:39;;;;;;;;;;;14.10;73.30;;;;;;5019760;28;19983;-78
2022/04/18 09:23:05;;;;;;;;;;;14.20;74.00;;;;;;5020337;28;19928;-78
2022/04/18 09:25:36;;;;;;;;;;;14.40;72.80;;;;;;5019585;28;19909;-78
2022/04/18 09:28:01;;;;;;;;;;;14.50;73.70;;;;;;5020095;28;19918;-78
2022/04/18 09:30:31;;;;;;;;;;;14.60;72.80;;;;;;5019866;28;19959;-78
2022/04/18 09:32:57;;;;;;;;;;;14.70;72.80;;;;;;5019922;28;19909;-78
2022/04/18 09:35:23;;;;;;;;;;;14.80;72.40;;;;;;5019921;28;19917;-78
2022/04/18 09:37:50;;;;;;;;;;;14.80;72.20;;;;;;5019180;28;19909;-78
2022/04/18 09:40:20;;;;;;;;;;;14.90;71.80;;;;;;5019726;28;19997;-78
2022/04/18 09:42:46;;;;;;;;;;;15.10;71.50;;;;;;5019724;28;20000;-78
2022/04/18 09:45:11;;;;;;;;;;;15.20;72.60;;;;;;5019934;28;20051;-78
2022/04/18 09:47:36;;;;;;;;;;;15.30;69.10;;;;;;5019712;28;19931;-78
2022/04/18 09:53:22;;;;;;;;;;;15.40;58.60;;;;;;4985047;28;19943;-78
2022/04/18 09:55:49;;;;;;;;;;;15.10;58.20;;;;;;5019072;28;19913;-78
2022/04/18 09:58:15;;;;;;;;;;;14.90;57.70;;;;;;5019124;28;19914;-78
2022/04/18 10:00:40;;;;;;;;;;;14.90;56.50;;;;;;5019535;28;19917;-78
2022/04/18 10:03:06;;;;;;;;;;;14.70;56.80;;;;;;5019684;28;20027;-78
2022/04/18 10:05:32;;;;;;;;;;;14.60;56.70;;;;;;5019405;28;19913;-78
2022/04/18 10:08:03;;;;;;;;;;;14.50;57.00;;;;;;5019443;28;19929;-77
2022/04/18 10:10:32;;;;;;;;;;;14.50;54.30;;;;;;5019329;28;19917;-78
2022/04/18 10:12:57;;;;;;;;;;;14.40;54.80;;;;;;5019182;28;19999;-77
2022/04/18 10:15:23;;;;;;;;;;;14.40;54.40;;;;;;5019540;28;20366;-78
2022/04/18 10:17:49;;;;;;;;;;;14.30;52.80;;;;;;5018810;28;19913;-78
2022/04/18 10:20:27;;;;;;;;;;;14.20;52.30;;;;;;5019333;28;20254;-77
2022/04/18 10:22:55;;;;;;;;;;;14.30;53.00;;;;;;5019314;28;19913;-78
2022/04/18 10:25:21;;;;;;;;;;;14.50;53.40;;;;;;5019186;28;20410;-78
2022/04/18 10:28:06;;;;;;;;;;;14.60;51.40;;;;;;5019396;28;20059;-78
2022/04/18 10:30:33;;;;;;;;;;;14.70;49.60;;;;;;5018698;28;19917;-78
2022/04/18 10:32:59;;;;;;;;;;;14.70;49.00;;;;;;5018997;28;20362;-78
2022/04/18 10:35:24;;;;;;;;;;;14.80;48.60;;;;;;5018966;28;19940;-78
2022/04/18 10:37:52;;;;;;;;;;;14.80;48.80;;;;;;5018870;28;20016;-78
2022/04/18 10:40:18;;;;;;;;;;;14.90;50.90;;;;;;5018922;28;20004;-78
2022/04/18 10:42:43;;;;;;;;;;;15.00;47.70;;;;;;5018250;28;19987;-78
2022/04/18 10:45:10;;;;;;;;;;;14.90;48.40;;;;;;5019262;28;20394;-78
2022/04/18 10:48:00;;;;;;;;;;;14.90;46.30;;;;;;5018530;28;20035;-78
2022/04/18 10:50:38;;;;;;;;;;;14.80;42.90;;;;;;5018942;28;20449;-78
2022/04/18 10:53:05;;;;;;;;;;;14.70;46.10;;;;;;5020857;28;19909;-78
2022/04/18 10:55:31;;;;;;;;;;;14.70;47.30;;;;;;5022743;28;19940;-78
2022/04/18 10:58:09;;;;;;;;;;;14.80;45.50;;;;;;5022760;28;19956;-77
2022/04/18 11:00:44;;;;;;;;;;;14.80;46.90;;;;;;5022359;28;19956;-78
2022/04/18 11:03:10;;;;;;;;;;;14.90;47.10;;;;;;5022612;28;19914;-78
2022/04/18 11:05:36;;;;;;;;;;;14.90;46.30;;;;;;5021873;28;19917;-78
2022/04/18 11:08:10;;;;;;;;;;;15.00;47.50;;;;;;5022631;28;19943;-78
2022/04/18 11:10:37;;;;;;;;;;;15.10;47.50;;;;;;5022402;28;19963;-78
2022/04/18 11:13:03;;;;;;;;;;;15.00;48.60;;;;;;5022209;28;19956;-78
2022/04/18 11:15:28;;;;;;;;;;;15.00;49.30;;;;;;5022418;28;19913;-78
2022/04/18 11:18:00;;;;;;;;;;;15.20;49.10;;;;;;5022458;28;19916;-78
2022/04/18 11:20:29;;;;;;;;;;;15.40;49.00;;;;;;5022334;28;19913;-78
2022/04/18 11:23:21;;;;;;;;;;;15.60;48.80;;;;;;5021921;28;20329;-78
2022/04/18 11:26:07;;;;;;;;;;;15.70;48.50;;;;;;5017285;28;20645;-78
2022/04/18 11:28:36;;;;;;;;;;;15.90;43.90;;;;;;5021891;28;19944;-78
2022/04/18 11:31:17;;;;;;;;;;;15.90;42.50;;;;;;5022066;28;19918;-78
2022/04/18 11:33:42;;;;;;;;;;;15.80;43.80;;;;;;5022220;28;20340;-78
2022/04/18 11:36:08;;;;;;;;;;;15.80;45.90;;;;;;5022025;28;19914;-78
2022/04/18 11:38:34;;;;;;;;;;;15.70;46.50;;;;;;5021304;28;20382;-78
2022/04/18 11:41:00;;;;;;;;;;;15.70;44.50;;;;;;5021996;28;19970;-78
2022/04/18 11:43:26;;;;;;;;;;;15.50;45.00;;;;;;5021750;28;19996;-78
2022/04/18 11:46:02;;;;;;;;;;;15.50;46.10;;;;;;5021718;28;20290;-78
2022/04/18 11:48:27;;;;;;;;;;;15.60;46.90;;;;;;5021528;28;20300;-78
2022/04/18 11:50:52;;;;;;;;;;;15.70;42.20;;;;;;5021169;28;19992;-78
2022/04/18 11:53:18;;;;;;;;;;;15.80;42.40;;;;;;5021670;28;20012;-78
2022/04/18 11:55:45;;;;;;;;;;;15.80;43.40;;;;;;5021581;28;19909;-78
2022/04/18 11:58:11;;;;;;;;;;;15.90;43.70;;;;;;5021489;28;19981;-78
2022/04/18 12:08:49;;;;;;;;;;;15.70;38.80;;;;;;5022136;28;19928;-78
2022/04/18 12:11:14;;;;;;;;;;;15.60;40.10;;;;;;5021543;28;19909;-78
2022/04/18 12:13:41;;;;;;;;;;;15.60;39.40;;;;;;5021256;28;19932;-78
2022/04/18 12:16:06;;;;;;;;;;;15.70;39.30;;;;;;5020968;28;19917;-78
2022/04/18 12:18:32;;;;;;;;;;;16.00;38.80;;;;;;5020038;28;20016;-78
2022/04/18 12:20:57;;;;;;;;;;;15.80;38.60;;;;;;5021569;28;19992;-78
2022/04/18 12:23:24;;;;;;;;;;;15.70;38.40;;;;;;5021271;28;19909;-78
2022/04/18 12:25:56;;;;;;;;;;;15.90;39.60;;;;;;5020822;28;19910;-78
2022/04/18 12:28:23;;;;;;;;;;;15.90;38.20;;;;;;5020457;28;20516;-78
2022/04/18 12:30:49;;;;;;;;;;;16.10;40.70;;;;;;5020544;28;19913;-78
2022/04/18 12:33:21;;;;;;;;;;;16.10;40.00;;;;;;5020868;28;19920;-78
2022/04/18 12:35:48;;;;;;;;;;;16.00;38.50;;;;;;5020762;28;20286;-78
2022/04/18 12:38:15;;;;;;;;;;;16.00;39.20;;;;;;5020445;28;20011;-78
2022/04/18 12:40:41;;;;;;;;;;;16.00;36.90;;;;;;5020227;28;19909;-78
2022/04/18 12:43:13;;;;;;;;;;;16.10;37.30;;;;;;5020680;28;19917;-78
2022/04/18 12:45:40;;;;;;;;;;;16.00;39.70;;;;;;5020700;28;20000;-78
2022/04/18 12:48:06;;;;;;;;;;;16.10;38.40;;;;;;5020458;28;20373;-78
2022/04/18 12:50:33;;;;;;;;;;;16.20;39.00;;;;;;5020848;28;20133;-78
2022/04/18 12:52:59;;;;;;;;;;;16.40;39.70;;;;;;5020064;28;19913;-78
2022/04/18 12:55:29;;;;;;;;;;;16.40;39.10;;;;;;5020924;28;20429;-78
2022/04/18 12:57:55;;;;;;;;;;;16.50;38.10;;;;;;5020565;28;19910;-78
2022/04/18 13:00:21;;;;;;;;;;;16.50;39.80;;;;;;5020566;28;20037;-78
2022/04/18 13:02:56;;;;;;;;;;;16.50;39.20;;;;;;5020311;28;20004;-78
2022/04/18 13:05:25;;;;;;;;;;;16.50;38.80;;;;;;5020495;28;20009;-78
2022/04/18 13:07:51;;;;;;;;;;;16.60;39.70;;;;;;5020456;28;19938;-78
2022/04/18 13:10:24;;;;;;;;;;;16.60;39.10;;;;;;5020838;28;20379;-78
2022/04/18 13:12:57;;;;;;;;;;;16.60;37.90;;;;;;5020038;28;20370;-78
2022/04/18 13:15:26;;;;;;;;;;;16.50;38.20;;;;;;5020212;28;19936;-78
2022/04/18 13:18:04;;;;;;;;;;;16.50;38.20;;;;;;5019815;28;20341;-78
2022/04/18 13:20:30;;;;;;;;;;;16.40;38.90;;;;;;5020338;28;19909;-78
2022/04/18 13:22:55;;;;;;;;;;;16.30;39.50;;;;;;5020169;28;19914;-78
2022/04/18 13:25:21;;;;;;;;;;;16.30;39.60;;;;;;5020165;28;19917;-78
2022/04/18 13:27:46;;;;;;;;;;;16.20;40.20;;;;;;5019817;28;19966;-78
2022/04/18 13:30:12;;;;;;;;;;;16.20;40.40;;;;;;5020286;28;20274;-78
2022/04/18 13:32:37;;;;;;;;;;;16.20;40.70;;;;;;5019775;28;19967;-78
2022/04/18 13:35:03;;;;;;;;;;;16.30;40.20;;;;;;5019858;28;20397;-79
2022/04/18 13:37:29;;;;;;;;;;;16.30;39.70;;;;;;5020008;28;19920;-78
2022/04/18 13:39:54;;;;;;;;;;;16.30;41.10;;;;;;5019946;28;19996;-78
2022/04/18 13:42:20;;;;;;;;;;;16.30;39.90;;;;;;5019562;28;19913;-79
2022/04/18 13:44:45;;;;;;;;;;;16.30;40.60;;;;;;5019786;28;19963;-78
2022/04/18 13:47:11;;;;;;;;;;;16.50;41.20;;;;;;5019920;28;19936;-78
2022/04/18 13:49:37;;;;;;;;;;;16.60;41.20;;;;;;5019742;28;19909;-79
2022/04/18 13:52:03;;;;;;;;;;;16.60;41.10;;;;;;5019564;28;19960;-78
2022/04/18 13:54:29;;;;;;;;;;;16.50;41.10;;;;;;5019174;28;19956;-79
2022/04/18 13:56:56;;;;;;;;;;;16.60;40.90;;;;;;5019598;28;19955;-79
2022/04/18 13:59:21;;;;;;;;;;;16.60;40.70;;;;;;5019649;28;19917;-78
2022/04/18 14:01:47;;;;;;;;;;;16.50;40.10;;;;;;5019350;28;19936;-79
2022/04/18 14:04:12;;;;;;;;;;;16.40;40.20;;;;;;5019751;28;19913;-78
2022/04/18 14:06:39;;;;;;;;;;;16.50;39.60;;;;;;5019289;28;20365;-79
2022/04/18 14:09:05;;;;;;;;;;;16.50;41.00;;;;;;5019955;28;19913;-79
2022/04/18 14:11:30;;;;;;;;;;;16.60;41.50;;;;;;5019083;28;20405;-78
2022/04/18 14:13:55;;;;;;;;;;;16.60;41.70;;;;;;5019373;28;20282;-79
2022/04/18 14:21:49;;;;;;;;;;;16.50;42.40;;;;;;5019235;28;19984;-78
2022/04/18 14:24:14;;;;;;;;;;;16.50;42.50;;;;;;5019143;28;20382;-79
2022/04/18 14:26:40;;;;;;;;;;;16.50;42.40;;;;;;5019112;28;20008;-79
2022/04/18 14:29:06;;;;;;;;;;;16.60;42.70;;;;;;5023363;28;19909;-78
2022/04/18 14:31:32;;;;;;;;;;;16.70;42.50;;;;;;5023024;28;19917;-78
2022/04/18 14:33:57;;;;;;;;;;;16.70;41.80;;;;;;5023192;28;20055;-78
2022/04/18 14:36:23;;;;;;;;;;;16.60;41.80;;;;;;5023184;28;19914;-78
2022/04/18 14:38:49;;;;;;;;;;;16.40;42.30;;;;;;5023085;28;20385;-79
2022/04/18 14:41:14;;;;;;;;;;;16.50;42.90;;;;;;5023255;28;20302;-78
2022/04/18 14:43:39;;;;;;;;;;;16.60;42.40;;;;;;5023041;28;20363;-78
2022/04/18 14:46:05;;;;;;;;;;;16.60;43.30;;;;;;5023112;28;20321;-79
2022/04/18 14:48:30;;;;;;;;;;;16.70;43.80;;;;;;5023043;28;19909;-79
2022/04/18 14:50:56;;;;;;;;;;;16.80;44.10;;;;;;5022614;28;19996;-78
2022/04/18 14:53:22;;;;;;;;;;;16.90;43.40;;;;;;5022737;28;20000;-78
2022/04/18 14:55:47;;;;;;;;;;;17.00;43.80;;;;;;5022841;28;19948;-78